sensor_id;sensor_type;location;lat;lon;timestamp;P1;durP1;ratioP1;P2;durP2;ratioP2
13959;SDS011;7052;51.050;3.716;2023-02-11T00:00:58;11.60;;;4.33;;
13959;SDS011;7052;51.050;3.716;2023-02-11T00:03:35;12.83;;;4.77;;
13959;SDS011;7052;51.050;3.716;2023-02-11T00:06:03;9.70;;;5.17;;
13959;SDS011;7052;51.050;3.716;2023-02-11T00:08:33;9.60;;;4.80;;
13959;SDS011;7052;51.050;3.716;2023-02-11T00:11:03;13.63;;;5.00;;
13959;SDS011;7052;51.050;3.716;2023-02-11T00:13:30;8.07;;;4.53;;
13959;SDS011;7052;51.050;3.716;2023-02-11T00:16:04;13.07;;;6.00;;
13959;SDS011;7052;51.050;3.716;2023-02-11T00:18:34;9.07;;;4.63;;
13959;SDS011;7052;51.050;3.716;2023-02-11T00:21:04;10.93;;;5.03;;
13959;SDS011;7052;51.050;3.716;2023-02-11T00:23:32;10.23;;;4.60;;
13959;SDS011;7052;51.050;3.716;2023-02-11T00:26:01;11.10;;;4.97;;
13959;SDS011;7052;51.050;3.716;2023-02-11T00:28:32;9.97;;;5.03;;
13959;SDS011;7052;51.050;3.716;2023-02-11T00:30:59;13.63;;;5.97;;
13959;SDS011;7052;51.050;3.716;2023-02-11T00:33:27;14.43;;;5.40;;
13959;SDS011;7052;51.050;3.716;2023-02-11T00:35:55;15.47;;;5.80;;
13959;SDS011;7052;51.050;3.716;2023-02-11T00:38:22;10.57;;;5.10;;
13959;SDS011;7052;51.050;3.716;2023-02-11T00:40:49;8.60;;;4.80;;
13959;SDS011;7052;51.050;3.716;2023-02-11T00:43:16;10.70;;;5.27;;
13959;SDS011;7052;51.050;3.716;2023-02-11T00:45:43;13.67;;;6.07;;
13959;SDS011;7052;51.050;3.716;2023-02-11T00:48:11;13.60;;;5.40;;
13959;SDS011;7052;51.050;3.716;2023-02-11T00:50:39;13.40;;;5.30;;
13959;SDS011;7052;51.050;3.716;2023-02-11T00:53:09;7.40;;;5.10;;
13959;SDS011;7052;51.050;3.716;2023-02-11T00:55:36;11.33;;;5.23;;
13959;SDS011;7052;51.050;3.716;2023-02-11T00:58:03;10.87;;;5.60;;
13959;SDS011;7052;51.050;3.716;2023-02-11T01:00:30;12.30;;;5.43;;
13959;SDS011;7052;51.050;3.716;2023-02-11T01:02:59;11.37;;;5.37;;
13959;SDS011;7052;51.050;3.716;2023-02-11T01:05:26;10.73;;;5.20;;
13959;SDS011;7052;51.050;3.716;2023-02-11T01:07:53;9.40;;;5.10;;
13959;SDS011;7052;51.050;3.716;2023-02-11T01:10:23;13.53;;;5.77;;
13959;SDS011;7052;51.050;3.716;2023-02-11T01:12:50;12.37;;;5.77;;
13959;SDS011;7052;51.050;3.716;2023-02-11T01:15:18;13.17;;;5.80;;
13959;SDS011;7052;51.050;3.716;2023-02-11T01:17:46;9.60;;;5.60;;
13959;SDS011;7052;51.050;3.716;2023-02-11T01:20:14;15.50;;;5.30;;
13959;SDS011;7052;51.050;3.716;2023-02-11T01:22:43;15.03;;;5.90;;
13959;SDS011;7052;51.050;3.716;2023-02-11T01:25:11;8.03;;;5.50;;
13959;SDS011;7052;51.050;3.716;2023-02-11T01:27:40;9.00;;;5.67;;
13959;SDS011;7052;51.050;3.716;2023-02-11T01:30:10;8.67;;;5.80;;
13959;SDS011;7052;51.050;3.716;2023-02-11T01:32:40;18.57;;;6.40;;
13959;SDS011;7052;51.050;3.716;2023-02-11T01:35:08;13.37;;;6.10;;
13959;SDS011;7052;51.050;3.716;2023-02-11T01:37:35;10.53;;;5.87;;
13959;SDS011;7052;51.050;3.716;2023-02-11T01:40:04;13.43;;;6.60;;
13959;SDS011;7052;51.050;3.716;2023-02-11T01:42:33;10.53;;;5.60;;
13959;SDS011;7052;51.050;3.716;2023-02-11T01:45:03;11.90;;;5.90;;
13959;SDS011;7052;51.050;3.716;2023-02-11T01:48:20;8.37;;;6.03;;
13959;SDS011;7052;51.050;3.716;2023-02-11T01:50:51;11.10;;;6.13;;
13959;SDS011;7052;51.050;3.716;2023-02-11T01:53:24;7.57;;;5.37;;
13959;SDS011;7052;51.050;3.716;2023-02-11T01:56:09;11.30;;;5.90;;
13959;SDS011;7052;51.050;3.716;2023-02-11T01:58:54;11.07;;;5.73;;
13959;SDS011;7052;51.050;3.716;2023-02-11T02:01:29;12.77;;;6.70;;
13959;SDS011;7052;51.050;3.716;2023-02-11T02:04:00;11.30;;;6.03;;
13959;SDS011;7052;51.050;3.716;2023-02-11T02:06:31;12.13;;;6.90;;
13959;SDS011;7052;51.050;3.716;2023-02-11T02:09:00;14.13;;;6.77;;
13959;SDS011;7052;51.050;3.716;2023-02-11T02:11:30;14.43;;;6.60;;
13959;SDS011;7052;51.050;3.716;2023-02-11T02:13:58;10.00;;;6.37;;
13959;SDS011;7052;51.050;3.716;2023-02-11T02:16:25;11.33;;;6.87;;
13959;SDS011;7052;51.050;3.716;2023-02-11T02:19:00;13.03;;;6.63;;
13959;SDS011;7052;51.050;3.716;2023-02-11T02:21:51;9.73;;;6.70;;
13959;SDS011;7052;51.050;3.716;2023-02-11T02:24:57;11.43;;;6.70;;
13959;SDS011;7052;51.050;3.716;2023-02-11T02:27:37;10.60;;;6.30;;
13959;SDS011;7052;51.050;3.716;2023-02-11T02:36:06;12.37;;;6.60;;
13959;SDS011;7052;51.050;3.716;2023-02-11T02:38:45;12.83;;;7.20;;
13959;SDS011;7052;51.050;3.716;2023-02-11T02:41:18;13.30;;;7.57;;
13959;SDS011;7052;51.050;3.716;2023-02-11T02:43:49;14.97;;;7.50;;
13959;SDS011;7052;51.050;3.716;2023-02-11T02:46:18;12.60;;;7.20;;
13959;SDS011;7052;51.050;3.716;2023-02-11T02:48:47;13.30;;;7.23;;
13959;SDS011;7052;51.050;3.716;2023-02-11T02:51:22;12.83;;;7.03;;
13959;SDS011;7052;51.050;3.716;2023-02-11T02:54:15;12.13;;;7.30;;
13959;SDS011;7052;51.050;3.716;2023-02-11T02:57:24;15.03;;;7.67;;
13959;SDS011;7052;51.050;3.716;2023-02-11T03:00:01;10.70;;;7.20;;
13959;SDS011;7052;51.050;3.716;2023-02-11T03:02:39;11.33;;;7.23;;
13959;SDS011;7052;51.050;3.716;2023-02-11T03:05:16;12.57;;;7.63;;
13959;SDS011;7052;51.050;3.716;2023-02-11T03:07:51;17.40;;;8.13;;
13959;SDS011;7052;51.050;3.716;2023-02-11T03:10:26;13.80;;;8.40;;
13959;SDS011;7052;51.050;3.716;2023-02-11T03:12:57;11.87;;;7.80;;
13959;SDS011;7052;51.050;3.716;2023-02-11T03:15:26;11.43;;;7.93;;
13959;SDS011;7052;51.050;3.716;2023-02-11T03:17:57;13.40;;;8.20;;
13959;SDS011;7052;51.050;3.716;2023-02-11T03:20:25;12.90;;;7.90;;
13959;SDS011;7052;51.050;3.716;2023-02-11T03:22:57;14.93;;;7.47;;
13959;SDS011;7052;51.050;3.716;2023-02-11T03:25:30;13.63;;;7.40;;
13959;SDS011;7052;51.050;3.716;2023-02-11T03:28:04;12.00;;;7.93;;
13959;SDS011;7052;51.050;3.716;2023-02-11T03:30:38;17.53;;;8.07;;
13959;SDS011;7052;51.050;3.716;2023-02-11T03:33:11;13.80;;;8.20;;
13959;SDS011;7052;51.050;3.716;2023-02-11T03:35:46;12.93;;;8.23;;
13959;SDS011;7052;51.050;3.716;2023-02-11T03:38:21;12.10;;;7.87;;
13959;SDS011;7052;51.050;3.716;2023-02-11T03:40:51;13.70;;;8.23;;
13959;SDS011;7052;51.050;3.716;2023-02-11T03:43:21;17.43;;;8.67;;
13959;SDS011;7052;51.050;3.716;2023-02-11T03:45:54;12.63;;;8.03;;
13959;SDS011;7052;51.050;3.716;2023-02-11T03:48:24;15.00;;;8.63;;
13959;SDS011;7052;51.050;3.716;2023-02-11T03:50:54;13.20;;;7.97;;
13959;SDS011;7052;51.050;3.716;2023-02-11T03:53:26;14.43;;;8.33;;
13959;SDS011;7052;51.050;3.716;2023-02-11T03:55:53;12.97;;;8.37;;
13959;SDS011;7052;51.050;3.716;2023-02-11T03:58:23;16.30;;;8.10;;
13959;SDS011;7052;51.050;3.716;2023-02-11T04:00:50;13.60;;;8.40;;
13959;SDS011;7052;51.050;3.716;2023-02-11T04:03:17;12.17;;;7.90;;
13959;SDS011;7052;51.050;3.716;2023-02-11T04:05:45;13.13;;;7.97;;
13959;SDS011;7052;51.050;3.716;2023-02-11T04:08:11;13.60;;;8.70;;
13959;SDS011;7052;51.050;3.716;2023-02-11T04:10:40;15.13;;;8.90;;
13959;SDS011;7052;51.050;3.716;2023-02-11T04:13:07;13.83;;;8.63;;
13959;SDS011;7052;51.050;3.716;2023-02-11T04:15:35;11.70;;;8.97;;
13959;SDS011;7052;51.050;3.716;2023-02-11T04:18:02;16.73;;;8.67;;
13959;SDS011;7052;51.050;3.716;2023-02-11T04:20:30;12.80;;;8.80;;
13959;SDS011;7052;51.050;3.716;2023-02-11T04:22:57;11.17;;;8.53;;
13959;SDS011;7052;51.050;3.716;2023-02-11T04:25:24;13.67;;;9.23;;
13959;SDS011;7052;51.050;3.716;2023-02-11T04:27:52;14.70;;;8.50;;
13959;SDS011;7052;51.050;3.716;2023-02-11T04:30:19;13.27;;;9.03;;
13959;SDS011;7052;51.050;3.716;2023-02-11T04:32:46;13.27;;;8.73;;
13959;SDS011;7052;51.050;3.716;2023-02-11T04:35:13;13.43;;;8.97;;
13959;SDS011;7052;51.050;3.716;2023-02-11T04:37:40;15.67;;;9.10;;
13959;SDS011;7052;51.050;3.716;2023-02-11T04:40:08;12.10;;;9.00;;
13959;SDS011;7052;51.050;3.716;2023-02-11T04:42:35;13.93;;;8.23;;
13959;SDS011;7052;51.050;3.716;2023-02-11T04:45:04;15.20;;;9.77;;
13959;SDS011;7052;51.050;3.716;2023-02-11T04:47:32;13.93;;;9.40;;
13959;SDS011;7052;51.050;3.716;2023-02-11T04:50:00;13.83;;;8.90;;
13959;SDS011;7052;51.050;3.716;2023-02-11T04:52:27;15.67;;;9.00;;
13959;SDS011;7052;51.050;3.716;2023-02-11T04:54:55;14.77;;;8.87;;
13959;SDS011;7052;51.050;3.716;2023-02-11T04:57:23;13.27;;;8.90;;
13959;SDS011;7052;51.050;3.716;2023-02-11T04:59:50;15.00;;;9.50;;
13959;SDS011;7052;51.050;3.716;2023-02-11T05:02:20;15.00;;;8.87;;
13959;SDS011;7052;51.050;3.716;2023-02-11T05:04:49;16.93;;;9.00;;
13959;SDS011;7052;51.050;3.716;2023-02-11T05:07:16;15.60;;;9.40;;
13959;SDS011;7052;51.050;3.716;2023-02-11T05:09:43;15.83;;;9.57;;
13959;SDS011;7052;51.050;3.716;2023-02-11T05:12:12;13.87;;;9.13;;
13959;SDS011;7052;51.050;3.716;2023-02-11T05:14:39;16.17;;;9.73;;
13959;SDS011;7052;51.050;3.716;2023-02-11T05:17:06;20.67;;;9.57;;
13959;SDS011;7052;51.050;3.716;2023-02-11T05:19:34;13.03;;;9.30;;
13959;SDS011;7052;51.050;3.716;2023-02-11T05:22:01;17.20;;;9.80;;
13959;SDS011;7052;51.050;3.716;2023-02-11T05:24:30;12.03;;;9.07;;
13959;SDS011;7052;51.050;3.716;2023-02-11T05:26:57;14.97;;;9.77;;
13959;SDS011;7052;51.050;3.716;2023-02-11T05:29:24;14.47;;;9.07;;
13959;SDS011;7052;51.050;3.716;2023-02-11T05:31:52;16.50;;;9.47;;
13959;SDS011;7052;51.050;3.716;2023-02-11T05:34:19;15.70;;;9.83;;
13959;SDS011;7052;51.050;3.716;2023-02-11T05:36:47;13.23;;;9.77;;
13959;SDS011;7052;51.050;3.716;2023-02-11T05:39:15;16.50;;;9.87;;
13959;SDS011;7052;51.050;3.716;2023-02-11T05:41:43;16.83;;;9.70;;
13959;SDS011;7052;51.050;3.716;2023-02-11T05:44:10;18.67;;;10.67;;
13959;SDS011;7052;51.050;3.716;2023-02-11T05:46:37;16.97;;;9.87;;
13959;SDS011;7052;51.050;3.716;2023-02-11T05:49:05;16.80;;;9.77;;
13959;SDS011;7052;51.050;3.716;2023-02-11T05:51:32;14.97;;;10.27;;
13959;SDS011;7052;51.050;3.716;2023-02-11T05:54:02;15.73;;;9.87;;
13959;SDS011;7052;51.050;3.716;2023-02-11T05:56:29;13.27;;;9.80;;
13959;SDS011;7052;51.050;3.716;2023-02-11T05:58:57;12.33;;;9.83;;
13959;SDS011;7052;51.050;3.716;2023-02-11T06:01:26;18.80;;;13.43;;
13959;SDS011;7052;51.050;3.716;2023-02-11T06:03:54;16.73;;;10.47;;
13959;SDS011;7052;51.050;3.716;2023-02-11T06:06:21;16.50;;;10.53;;
13959;SDS011;7052;51.050;3.716;2023-02-11T06:08:49;14.37;;;10.00;;
13959;SDS011;7052;51.050;3.716;2023-02-11T06:11:18;16.87;;;11.13;;
13959;SDS011;7052;51.050;3.716;2023-02-11T06:13:45;16.00;;;10.37;;
13959;SDS011;7052;51.050;3.716;2023-02-11T06:16:11;20.27;;;11.87;;
13959;SDS011;7052;51.050;3.716;2023-02-11T06:18:38;17.43;;;11.50;;
13959;SDS011;7052;51.050;3.716;2023-02-11T06:21:06;15.40;;;11.47;;
13959;SDS011;7052;51.050;3.716;2023-02-11T06:23:34;17.90;;;11.30;;
13959;SDS011;7052;51.050;3.716;2023-02-11T06:26:01;16.67;;;11.37;;
13959;SDS011;7052;51.050;3.716;2023-02-11T06:28:31;15.60;;;11.63;;
13959;SDS011;7052;51.050;3.716;2023-02-11T06:31:03;19.90;;;12.17;;
13959;SDS011;7052;51.050;3.716;2023-02-11T06:33:31;17.33;;;11.97;;
13959;SDS011;7052;51.050;3.716;2023-02-11T06:36:00;19.33;;;12.00;;
13959;SDS011;7052;51.050;3.716;2023-02-11T06:38:27;18.27;;;12.23;;
13959;SDS011;7052;51.050;3.716;2023-02-11T06:40:54;20.27;;;12.23;;
13959;SDS011;7052;51.050;3.716;2023-02-11T06:43:21;21.83;;;12.83;;
13959;SDS011;7052;51.050;3.716;2023-02-11T06:45:52;23.30;;;13.13;;
13959;SDS011;7052;51.050;3.716;2023-02-11T06:48:21;20.17;;;12.40;;
13959;SDS011;7052;51.050;3.716;2023-02-11T06:50:50;21.83;;;13.07;;
13959;SDS011;7052;51.050;3.716;2023-02-11T06:53:19;21.23;;;13.13;;
13959;SDS011;7052;51.050;3.716;2023-02-11T06:55:46;21.33;;;13.03;;
13959;SDS011;7052;51.050;3.716;2023-02-11T06:58:14;21.80;;;13.30;;
13959;SDS011;7052;51.050;3.716;2023-02-11T07:00:41;22.23;;;13.07;;
13959;SDS011;7052;51.050;3.716;2023-02-11T07:03:09;21.07;;;13.83;;
13959;SDS011;7052;51.050;3.716;2023-02-11T07:05:36;20.33;;;13.20;;
13959;SDS011;7052;51.050;3.716;2023-02-11T07:08:03;20.07;;;13.90;;
13959;SDS011;7052;51.050;3.716;2023-02-11T07:10:30;22.67;;;13.67;;
13959;SDS011;7052;51.050;3.716;2023-02-11T07:13:01;22.20;;;13.73;;
13959;SDS011;7052;51.050;3.716;2023-02-11T07:15:28;20.13;;;13.00;;
13959;SDS011;7052;51.050;3.716;2023-02-11T07:17:55;22.67;;;14.80;;
13959;SDS011;7052;51.050;3.716;2023-02-11T07:20:26;22.33;;;13.37;;
13959;SDS011;7052;51.050;3.716;2023-02-11T07:22:53;21.47;;;13.77;;
13959;SDS011;7052;51.050;3.716;2023-02-11T07:25:19;20.90;;;13.80;;
13959;SDS011;7052;51.050;3.716;2023-02-11T07:27:46;25.80;;;17.60;;
13959;SDS011;7052;51.050;3.716;2023-02-11T07:30:16;28.47;;;15.63;;
13959;SDS011;7052;51.050;3.716;2023-02-11T07:32:43;23.73;;;14.57;;
13959;SDS011;7052;51.050;3.716;2023-02-11T07:35:10;24.43;;;14.47;;
13959;SDS011;7052;51.050;3.716;2023-02-11T07:37:38;22.77;;;14.67;;
13959;SDS011;7052;51.050;3.716;2023-02-11T07:40:06;23.40;;;17.57;;
13959;SDS011;7052;51.050;3.716;2023-02-11T07:42:33;23.30;;;15.97;;
13959;SDS011;7052;51.050;3.716;2023-02-11T07:45:04;25.23;;;15.73;;
13959;SDS011;7052;51.050;3.716;2023-02-11T07:47:32;25.07;;;15.00;;
13959;SDS011;7052;51.050;3.716;2023-02-11T07:49:59;19.07;;;14.33;;
13959;SDS011;7052;51.050;3.716;2023-02-11T07:52:28;28.57;;;15.83;;
13959;SDS011;7052;51.050;3.716;2023-02-11T07:54:59;22.60;;;15.33;;
13959;SDS011;7052;51.050;3.716;2023-02-11T07:57:29;20.13;;;15.07;;
13959;SDS011;7052;51.050;3.716;2023-02-11T07:59:56;24.30;;;14.80;;
13959;SDS011;7052;51.050;3.716;2023-02-11T08:02:23;24.93;;;16.20;;
13959;SDS011;7052;51.050;3.716;2023-02-11T08:04:50;23.17;;;14.93;;
13959;SDS011;7052;51.050;3.716;2023-02-11T08:07:18;22.40;;;16.10;;
13959;SDS011;7052;51.050;3.716;2023-02-11T08:09:46;27.90;;;16.17;;
13959;SDS011;7052;51.050;3.716;2023-02-11T08:12:14;24.73;;;14.97;;
13959;SDS011;7052;51.050;3.716;2023-02-11T08:14:42;25.97;;;16.33;;
13959;SDS011;7052;51.050;3.716;2023-02-11T08:17:11;23.83;;;15.47;;
13959;SDS011;7052;51.050;3.716;2023-02-11T08:19:38;28.33;;;16.53;;
13959;SDS011;7052;51.050;3.716;2023-02-11T08:22:04;24.20;;;16.77;;
13959;SDS011;7052;51.050;3.716;2023-02-11T08:24:31;23.27;;;16.97;;
13959;SDS011;7052;51.050;3.716;2023-02-11T08:26:58;30.53;;;20.40;;
13959;SDS011;7052;51.050;3.716;2023-02-11T08:29:26;26.63;;;18.70;;
13959;SDS011;7052;51.050;3.716;2023-02-11T08:31:54;28.50;;;19.60;;
13959;SDS011;7052;51.050;3.716;2023-02-11T08:34:21;35.83;;;25.80;;
13959;SDS011;7052;51.050;3.716;2023-02-11T08:36:49;48.83;;;40.23;;
13959;SDS011;7052;51.050;3.716;2023-02-11T08:39:17;32.47;;;26.03;;
13959;SDS011;7052;51.050;3.716;2023-02-11T08:41:47;30.70;;;21.27;;
13959;SDS011;7052;51.050;3.716;2023-02-11T08:44:14;32.63;;;19.37;;
13959;SDS011;7052;51.050;3.716;2023-02-11T08:46:50;28.83;;;19.43;;
13959;SDS011;7052;51.050;3.716;2023-02-11T08:49:17;29.60;;;19.57;;
13959;SDS011;7052;51.050;3.716;2023-02-11T08:51:45;30.90;;;20.40;;
13959;SDS011;7052;51.050;3.716;2023-02-11T08:54:13;28.17;;;18.80;;
13959;SDS011;7052;51.050;3.716;2023-02-11T08:56:40;30.00;;;20.30;;
13959;SDS011;7052;51.050;3.716;2023-02-11T08:59:07;32.37;;;20.30;;
13959;SDS011;7052;51.050;3.716;2023-02-11T09:01:39;30.10;;;20.27;;
13959;SDS011;7052;51.050;3.716;2023-02-11T09:04:08;27.27;;;17.53;;
13959;SDS011;7052;51.050;3.716;2023-02-11T09:06:35;28.83;;;20.67;;
13959;SDS011;7052;51.050;3.716;2023-02-11T09:09:03;28.80;;;19.53;;
13959;SDS011;7052;51.050;3.716;2023-02-11T09:11:32;29.43;;;20.87;;
13959;SDS011;7052;51.050;3.716;2023-02-11T09:14:00;30.97;;;21.33;;
13959;SDS011;7052;51.050;3.716;2023-02-11T09:16:29;26.87;;;20.20;;
13959;SDS011;7052;51.050;3.716;2023-02-11T09:18:58;29.73;;;21.83;;
13959;SDS011;7052;51.050;3.716;2023-02-11T09:21:28;29.47;;;21.90;;
13959;SDS011;7052;51.050;3.716;2023-02-11T09:23:57;28.47;;;19.73;;
13959;SDS011;7052;51.050;3.716;2023-02-11T09:26:24;29.87;;;20.87;;
13959;SDS011;7052;51.050;3.716;2023-02-11T09:28:52;28.30;;;21.33;;
13959;SDS011;7052;51.050;3.716;2023-02-11T09:31:20;30.87;;;21.50;;
13959;SDS011;7052;51.050;3.716;2023-02-11T09:33:50;25.60;;;19.70;;
13959;SDS011;7052;51.050;3.716;2023-02-11T09:36:19;28.37;;;21.27;;
13959;SDS011;7052;51.050;3.716;2023-02-11T09:38:49;29.77;;;21.17;;
13959;SDS011;7052;51.050;3.716;2023-02-11T09:41:26;27.27;;;21.20;;
13959;SDS011;7052;51.050;3.716;2023-02-11T09:44:04;29.40;;;20.30;;
13959;SDS011;7052;51.050;3.716;2023-02-11T09:46:36;32.83;;;21.27;;
13959;SDS011;7052;51.050;3.716;2023-02-11T09:49:09;29.07;;;21.07;;
13959;SDS011;7052;51.050;3.716;2023-02-11T09:51:48;31.33;;;21.07;;
13959;SDS011;7052;51.050;3.716;2023-02-11T09:54:24;27.47;;;20.50;;
13959;SDS011;7052;51.050;3.716;2023-02-11T09:56:55;30.07;;;20.83;;
13959;SDS011;7052;51.050;3.716;2023-02-11T09:59:21;27.60;;;19.60;;
13959;SDS011;7052;51.050;3.716;2023-02-11T10:01:50;26.90;;;20.87;;
13959;SDS011;7052;51.050;3.716;2023-02-11T10:04:24;31.20;;;20.53;;
13959;SDS011;7052;51.050;3.716;2023-02-11T10:07:01;29.20;;;19.73;;
13959;SDS011;7052;51.050;3.716;2023-02-11T10:09:43;28.03;;;20.07;;
13959;SDS011;7052;51.050;3.716;2023-02-11T10:12:25;29.07;;;19.67;;
13959;SDS011;7052;51.050;3.716;2023-02-11T10:15:12;25.80;;;19.43;;
13959;SDS011;7052;51.050;3.716;2023-02-11T10:17:46;27.23;;;21.90;;
13959;SDS011;7052;51.050;3.716;2023-02-11T10:20:28;26.87;;;18.97;;
13959;SDS011;7052;51.050;3.716;2023-02-11T10:22:59;27.93;;;19.50;;
13959;SDS011;7052;51.050;3.716;2023-02-11T10:25:38;24.00;;;19.40;;
13959;SDS011;7052;51.050;3.716;2023-02-11T10:28:10;25.13;;;18.37;;
13959;SDS011;7052;51.050;3.716;2023-02-11T10:30:40;28.93;;;20.37;;
13959;SDS011;7052;51.050;3.716;2023-02-11T10:33:11;26.50;;;19.53;;
13959;SDS011;7052;51.050;3.716;2023-02-11T10:35:46;23.73;;;18.77;;
13959;SDS011;7052;51.050;3.716;2023-02-11T10:38:13;26.80;;;19.17;;
13959;SDS011;7052;51.050;3.716;2023-02-11T10:40:43;23.63;;;18.57;;
13959;SDS011;7052;51.050;3.716;2023-02-11T10:43:12;26.63;;;19.50;;
13959;SDS011;7052;51.050;3.716;2023-02-11T10:45:41;27.77;;;19.17;;
13959;SDS011;7052;51.050;3.716;2023-02-11T10:51:05;28.30;;;19.63;;
13959;SDS011;7052;51.050;3.716;2023-02-11T10:53:34;25.07;;;19.17;;
13959;SDS011;7052;51.050;3.716;2023-02-11T10:56:04;26.47;;;19.90;;
13959;SDS011;7052;51.050;3.716;2023-02-11T10:58:33;27.97;;;20.50;;
13959;SDS011;7052;51.050;3.716;2023-02-11T11:01:10;25.47;;;18.90;;
13959;SDS011;7052;51.050;3.716;2023-02-11T11:03:37;26.97;;;19.67;;
13959;SDS011;7052;51.050;3.716;2023-02-11T11:06:11;25.73;;;18.90;;
13959;SDS011;7052;51.050;3.716;2023-02-11T11:08:39;29.03;;;20.77;;
13959;SDS011;7052;51.050;3.716;2023-02-11T11:11:12;31.70;;;24.27;;
13959;SDS011;7052;51.050;3.716;2023-02-11T11:13:40;24.13;;;19.97;;
13959;SDS011;7052;51.050;3.716;2023-02-11T11:16:23;23.83;;;18.43;;
13959;SDS011;7052;51.050;3.716;2023-02-11T11:18:51;26.90;;;19.00;;
13959;SDS011;7052;51.050;3.716;2023-02-11T11:21:32;26.30;;;18.40;;
13959;SDS011;7052;51.050;3.716;2023-02-11T11:24:02;26.10;;;19.57;;
13959;SDS011;7052;51.050;3.716;2023-02-11T11:26:39;23.47;;;18.83;;
13959;SDS011;7052;51.050;3.716;2023-02-11T11:29:09;22.87;;;18.63;;
13959;SDS011;7052;51.050;3.716;2023-02-11T11:31:45;24.63;;;19.07;;
13959;SDS011;7052;51.050;3.716;2023-02-11T11:34:19;24.57;;;18.10;;
13959;SDS011;7052;51.050;3.716;2023-02-11T11:36:51;23.80;;;17.83;;
13959;SDS011;7052;51.050;3.716;2023-02-11T11:39:21;28.80;;;19.50;;
13959;SDS011;7052;51.050;3.716;2023-02-11T11:41:53;34.17;;;20.27;;
13959;SDS011;7052;51.050;3.716;2023-02-11T11:44:23;24.87;;;17.77;;
13959;SDS011;7052;51.050;3.716;2023-02-11T11:47:05;25.47;;;17.80;;
13959;SDS011;7052;51.050;3.716;2023-02-11T11:49:46;24.63;;;18.17;;
13959;SDS011;7052;51.050;3.716;2023-02-11T11:52:19;24.50;;;19.53;;
13959;SDS011;7052;51.050;3.716;2023-02-11T11:55:00;27.23;;;19.60;;
13959;SDS011;7052;51.050;3.716;2023-02-11T11:57:34;24.17;;;19.37;;
13959;SDS011;7052;51.050;3.716;2023-02-11T12:00:04;23.43;;;18.13;;
13959;SDS011;7052;51.050;3.716;2023-02-11T12:02:46;27.43;;;19.27;;
13959;SDS011;7052;51.050;3.716;2023-02-11T12:05:36;24.43;;;18.93;;
13959;SDS011;7052;51.050;3.716;2023-02-11T12:08:10;24.00;;;18.30;;
13959;SDS011;7052;51.050;3.716;2023-02-11T12:10:51;24.93;;;18.47;;
13959;SDS011;7052;51.050;3.716;2023-02-11T12:13:33;25.03;;;19.83;;
13959;SDS011;7052;51.050;3.716;2023-02-11T12:16:11;23.57;;;17.90;;
13959;SDS011;7052;51.050;3.716;2023-02-11T12:18:52;23.77;;;18.77;;
13959;SDS011;7052;51.050;3.716;2023-02-11T12:21:45;26.03;;;19.03;;
13959;SDS011;7052;51.050;3.716;2023-02-11T12:24:24;23.47;;;18.37;;
13959;SDS011;7052;51.050;3.716;2023-02-11T12:27:05;24.80;;;18.53;;
13959;SDS011;7052;51.050;3.716;2023-02-11T12:29:44;25.83;;;18.40;;
13959;SDS011;7052;51.050;3.716;2023-02-11T12:32:23;23.93;;;19.20;;
13959;SDS011;7052;51.050;3.716;2023-02-11T12:35:05;26.67;;;19.80;;
13959;SDS011;7052;51.050;3.716;2023-02-11T12:38:06;33.53;;;19.67;;
13959;SDS011;7052;51.050;3.716;2023-02-11T12:41:16;24.60;;;17.93;;
13959;SDS011;7052;51.050;3.716;2023-02-11T12:44:13;24.53;;;17.43;;
13959;SDS011;7052;51.050;3.716;2023-02-11T12:46:52;26.17;;;18.80;;
13959;SDS011;7052;51.050;3.716;2023-02-11T12:49:33;25.30;;;18.37;;
13959;SDS011;7052;51.050;3.716;2023-02-11T12:52:14;25.07;;;17.77;;
13959;SDS011;7052;51.050;3.716;2023-02-11T12:54:52;24.50;;;18.70;;
13959;SDS011;7052;51.050;3.716;2023-02-11T12:57:24;24.13;;;18.30;;
13959;SDS011;7052;51.050;3.716;2023-02-11T12:59:55;24.03;;;17.87;;
13959;SDS011;7052;51.050;3.716;2023-02-11T13:02:30;23.10;;;17.90;;
13959;SDS011;7052;51.050;3.716;2023-02-11T13:05:03;23.90;;;18.10;;
13959;SDS011;7052;51.050;3.716;2023-02-11T13:07:38;22.60;;;18.23;;
13959;SDS011;7052;51.050;3.716;2023-02-11T13:10:14;25.43;;;17.77;;
13959;SDS011;7052;51.050;3.716;2023-02-11T13:13:17;21.00;;;16.77;;
13959;SDS011;7052;51.050;3.716;2023-02-11T13:15:49;25.70;;;17.67;;
13959;SDS011;7052;51.050;3.716;2023-02-11T13:18:23;23.03;;;17.43;;
13959;SDS011;7052;51.050;3.716;2023-02-11T13:21:04;23.23;;;18.93;;
13959;SDS011;7052;51.050;3.716;2023-02-11T13:23:43;23.70;;;18.40;;
13959;SDS011;7052;51.050;3.716;2023-02-11T13:26:17;24.67;;;18.60;;
13959;SDS011;7052;51.050;3.716;2023-02-11T13:28:47;24.97;;;18.23;;
13959;SDS011;7052;51.050;3.716;2023-02-11T13:31:19;24.70;;;17.90;;
13959;SDS011;7052;51.050;3.716;2023-02-11T13:33:52;23.50;;;18.07;;
13959;SDS011;7052;51.050;3.716;2023-02-11T13:36:19;25.47;;;18.07;;
13959;SDS011;7052;51.050;3.716;2023-02-11T13:38:53;24.90;;;17.80;;
13959;SDS011;7052;51.050;3.716;2023-02-11T13:41:28;23.03;;;17.87;;
13959;SDS011;7052;51.050;3.716;2023-02-11T13:46:51;22.37;;;17.43;;
13959;SDS011;7052;51.050;3.716;2023-02-11T13:49:26;25.10;;;17.83;;
13959;SDS011;7052;51.050;3.716;2023-02-11T13:51:59;23.97;;;18.17;;
13959;SDS011;7052;51.050;3.716;2023-02-11T13:54:31;22.43;;;17.10;;
13959;SDS011;7052;51.050;3.716;2023-02-11T14:06:34;22.03;;;17.03;;
13959;SDS011;7052;51.050;3.716;2023-02-11T14:09:32;21.03;;;17.10;;
13959;SDS011;7052;51.050;3.716;2023-02-11T14:14:57;20.73;;;16.70;;
13959;SDS011;7052;51.050;3.716;2023-02-11T14:17:29;24.23;;;17.97;;
13959;SDS011;7052;51.050;3.716;2023-02-11T14:20:00;21.20;;;17.23;;
13959;SDS011;7052;51.050;3.716;2023-02-11T14:22:42;23.07;;;16.80;;
13959;SDS011;7052;51.050;3.716;2023-02-11T14:25:18;21.17;;;15.97;;
13959;SDS011;7052;51.050;3.716;2023-02-11T14:27:48;22.50;;;18.20;;
13959;SDS011;7052;51.050;3.716;2023-02-11T14:30:30;23.33;;;16.50;;
13959;SDS011;7052;51.050;3.716;2023-02-11T14:33:38;21.80;;;17.10;;
13959;SDS011;7052;51.050;3.716;2023-02-11T14:36:30;22.93;;;17.37;;
13959;SDS011;7052;51.050;3.716;2023-02-11T14:39:16;22.17;;;16.47;;
13959;SDS011;7052;51.050;3.716;2023-02-11T14:41:50;20.87;;;16.47;;
13959;SDS011;7052;51.050;3.716;2023-02-11T14:44:18;22.50;;;16.80;;
13959;SDS011;7052;51.050;3.716;2023-02-11T14:46:56;22.50;;;16.97;;
13959;SDS011;7052;51.050;3.716;2023-02-11T14:49:25;20.20;;;16.17;;
13959;SDS011;7052;51.050;3.716;2023-02-11T14:51:55;22.07;;;17.03;;
13959;SDS011;7052;51.050;3.716;2023-02-11T14:54:28;19.73;;;16.67;;
13959;SDS011;7052;51.050;3.716;2023-02-11T14:57:06;23.67;;;17.77;;
13959;SDS011;7052;51.050;3.716;2023-02-11T14:59:37;25.47;;;16.93;;
13959;SDS011;7052;51.050;3.716;2023-02-11T15:02:14;21.77;;;15.87;;
13959;SDS011;7052;51.050;3.716;2023-02-11T15:04:48;22.80;;;17.37;;
13959;SDS011;7052;51.050;3.716;2023-02-11T15:07:15;21.63;;;16.07;;
13959;SDS011;7052;51.050;3.716;2023-02-11T15:09:45;22.30;;;16.33;;
13959;SDS011;7052;51.050;3.716;2023-02-11T15:12:16;19.97;;;15.53;;
13959;SDS011;7052;51.050;3.716;2023-02-11T15:14:49;20.87;;;15.63;;
13959;SDS011;7052;51.050;3.716;2023-02-11T15:17:20;21.52;;;18.30;;
13959;SDS011;7052;51.050;3.716;2023-02-11T15:19:49;20.73;;;16.67;;
13959;SDS011;7052;51.050;3.716;2023-02-11T15:22:19;19.83;;;14.70;;
13959;SDS011;7052;51.050;3.716;2023-02-11T15:24:57;20.53;;;15.77;;
13959;SDS011;7052;51.050;3.716;2023-02-11T15:27:25;22.70;;;15.47;;
13959;SDS011;7052;51.050;3.716;2023-02-11T15:29:53;21.23;;;15.33;;
13959;SDS011;7052;51.050;3.716;2023-02-11T15:32:23;21.13;;;15.33;;